KEKN

Elkins-Randolph Co-Jennings Randolph Field Airport

Elkins, West Virginia, USA
METAR KEKN 230951Z AUTO 28003KT 10SM OVC006 09/08 A3039 RMK AO2 SLP297 T00940083 TSNO
Observed Flight Rules
Feb-23 @ 09:51 UTC (37 minutes ago) Instrument Flight Rules
Wind Visibility Clouds
280° at 3 knots 10 miles
  • Overcast at 600' AGL
Temperatures Readings
Current 9°C / 48°F
Dewpoint 8°C / 46°F
Humidity 94%
Altimeter 30.39" Hg
Pressure 1029.7 hPa
Elevation 603
METAR KEKN 230951Z AUTO 28003KT 10SM OVC006 09/08 A3039 RMK AO2 SLP297 T00940083 TSNO
Observed Flight Rules
Feb-23 @ 09:51 UTC
(37 minutes ago)
IFR
Wind Visibility
280° at 3 knots 10 miles
Clouds
  • Overcast at 600' AGL
Temperature Dewpoint
9°C / 48°F 8°C / 46°F
Humidity Altimeter Pressure
94% 30.39" Hg 1029.7 hPa